createdAt,value
2023-04-23T00:02:08.071Z,11.80
2023-04-23T00:04:38.502Z,11.80
2023-04-23T00:07:05.834Z,11.80
2023-04-23T00:09:33.147Z,11.80
2023-04-23T00:12:01.922Z,11.80
2023-04-23T00:14:29.057Z,11.80
2023-04-23T00:16:55.965Z,11.80
2023-04-23T00:19:22.603Z,11.70
2023-04-23T00:21:49.451Z,11.80
2023-04-23T00:24:16.212Z,11.80
2023-04-23T00:26:42.975Z,11.80
2023-04-23T00:29:09.826Z,11.70
2023-04-23T00:31:36.665Z,11.70
2023-04-23T00:34:03.681Z,11.70
2023-04-23T00:36:30.459Z,11.70
2023-04-23T00:38:57.127Z,11.70
2023-04-23T00:41:24.084Z,11.70
2023-04-23T00:43:53.250Z,11.70
2023-04-23T00:46:20.669Z,11.60
2023-04-23T00:48:48.250Z,11.60
2023-04-23T00:51:16.674Z,11.50
2023-04-23T00:53:43.515Z,11.60
2023-04-23T00:56:10.742Z,11.60
2023-04-23T00:58:38.079Z,11.50
2023-04-23T01:01:05.456Z,11.40
2023-04-23T01:03:34.596Z,11.50
2023-04-23T01:06:01.778Z,11.50
2023-04-23T01:08:28.826Z,11.50
2023-04-23T01:10:55.704Z,11.50
2023-04-23T01:13:36.487Z,11.50
2023-04-23T01:16:03.275Z,11.40
2023-04-23T01:18:30.532Z,11.40
2023-04-23T01:20:57.196Z,11.50
2023-04-23T01:23:24.101Z,11.50
2023-04-23T01:25:50.837Z,11.50
2023-04-23T01:28:17.640Z,11.50
2023-04-23T01:30:45.170Z,11.50
2023-04-23T01:33:12.022Z,11.40
2023-04-23T01:35:41.177Z,11.40
2023-04-23T01:38:11.034Z,11.40
2023-04-23T01:40:38.159Z,11.30
2023-04-23T01:43:05.789Z,11.20
2023-04-23T01:45:32.893Z,11.20
2023-04-23T01:48:02.710Z,11.30
2023-04-23T01:50:29.984Z,11.30
2023-04-23T01:52:57.031Z,11.20
2023-04-23T01:55:23.776Z,11.10
2023-04-23T01:57:51.049Z,11.20
2023-04-23T02:00:18.099Z,11.20
2023-04-23T02:02:45.078Z,11.20
2023-04-23T02:05:15.094Z,11.10
2023-04-23T02:07:42.314Z,11.10
2023-04-23T02:10:09.728Z,11.10
2023-04-23T02:12:37.179Z,11.10
2023-04-23T02:15:04.800Z,11.00
2023-04-23T02:17:31.453Z,10.90
2023-04-23T02:19:58.343Z,10.80
2023-04-23T02:22:26.332Z,10.70
2023-04-23T02:24:53.100Z,10.70
2023-04-23T02:27:20.264Z,10.70
2023-04-23T02:29:48.042Z,10.70
2023-04-23T02:32:17.979Z,10.60
2023-04-23T02:34:44.621Z,10.50
2023-04-23T02:37:11.816Z,10.50
2023-04-23T02:39:41.687Z,10.50
2023-04-23T02:42:08.540Z,10.50
2023-04-23T02:44:35.356Z,10.50
2023-04-23T02:47:02.084Z,10.50
2023-04-23T02:49:28.762Z,10.50
2023-04-23T02:51:55.603Z,10.40
2023-04-23T02:54:22.359Z,10.40
2023-04-23T02:56:49.033Z,10.40
2023-04-23T02:59:15.843Z,10.30
2023-04-23T03:01:43.111Z,10.30
2023-04-23T03:04:12.233Z,10.40
2023-04-23T03:06:38.952Z,10.40
2023-04-23T03:09:05.568Z,10.30
2023-04-23T03:11:32.264Z,10.30
2023-04-23T03:13:59.138Z,10.20
2023-04-23T03:16:28.432Z,10.20
2023-04-23T03:18:55.492Z,10.20
2023-04-23T03:21:22.144Z,10.20
2023-04-23T03:23:49.742Z,10.10
2023-04-23T03:26:17.161Z,10.00
2023-04-23T03:28:44.422Z,10.10
2023-04-23T03:31:11.255Z,10.10
2023-04-23T03:33:38.823Z,10.00
2023-04-23T03:36:05.571Z,10.10
2023-04-23T03:38:32.868Z,10.00
2023-04-23T03:41:00.607Z,9.90
2023-04-23T03:43:27.696Z,9.80
2023-04-23T03:46:16.034Z,9.80
2023-04-23T03:48:42.751Z,9.80
2023-04-23T03:51:16.016Z,9.70
2023-04-23T03:53:46.032Z,9.80
2023-04-23T03:56:31.021Z,9.80
2023-04-23T03:59:09.684Z,9.80
2023-04-23T04:01:36.819Z,9.80
2023-04-23T04:04:03.590Z,9.80
2023-04-23T04:06:32.555Z,9.80
2023-04-23T04:08:59.137Z,9.70
2023-04-23T04:11:26.373Z,9.70
2023-04-23T04:13:52.955Z,9.80
2023-04-23T04:16:19.591Z,9.80
2023-04-23T04:18:46.347Z,9.80
2023-04-23T04:21:13.011Z,9.80
2023-04-23T04:23:39.754Z,9.80
2023-04-23T04:26:07.952Z,9.80
2023-04-23T04:28:36.220Z,9.80
2023-04-23T04:31:03.532Z,9.80
2023-04-23T04:33:30.529Z,9.90
2023-04-23T04:35:57.682Z,9.90
2023-04-23T04:38:24.257Z,9.90
2023-04-23T04:40:50.959Z,9.90
2023-04-23T04:43:18.328Z,9.90
2023-04-23T04:45:44.957Z,9.90
2023-04-23T04:48:11.574Z,9.90
2023-04-23T04:50:38.164Z,9.90
2023-04-23T04:53:04.820Z,9.80
2023-04-23T04:55:31.402Z,9.90
2023-04-23T04:57:58.071Z,9.90
2023-04-23T05:00:29.492Z,9.90
2023-04-23T05:05:25.982Z,10.00
2023-04-23T05:07:59.417Z,10.00
2023-04-23T05:10:26.731Z,10.00
2023-04-23T05:12:53.437Z,9.90
2023-04-23T05:15:20.286Z,9.90
2023-04-23T05:17:47.087Z,9.90
2023-04-23T05:20:14.271Z,10.00
2023-04-23T05:22:42.358Z,10.00
2023-04-23T05:25:11.574Z,9.90
2023-04-23T05:27:39.098Z,10.00
2023-04-23T05:30:08.378Z,10.00
2023-04-23T05:32:36.046Z,10.00
2023-04-23T05:35:03.737Z,10.00
2023-04-23T05:37:30.876Z,10.00
2023-04-23T05:40:00.646Z,10.00
2023-04-23T05:42:27.367Z,10.00
2023-04-23T05:44:54.185Z,10.00
2023-04-23T05:47:21.544Z,10.00
2023-04-23T05:49:48.284Z,10.10
2023-04-23T05:52:15.574Z,10.10
2023-04-23T05:54:42.630Z,10.10
2023-04-23T05:57:09.487Z,10.10
2023-04-23T05:59:36.359Z,10.20
2023-04-23T06:02:03.175Z,10.20
2023-04-23T06:04:29.995Z,10.20
2023-04-23T06:06:56.890Z,10.20
2023-04-23T06:09:23.623Z,10.30
2023-04-23T06:11:52.478Z,10.40
2023-04-23T06:14:19.396Z,10.50
2023-04-23T06:16:46.099Z,10.60
2023-04-23T06:19:13.026Z,10.60
2023-04-23T06:21:39.824Z,10.60
2023-04-23T06:24:10.094Z,10.60
2023-04-23T06:26:36.778Z,10.70
2023-04-23T06:29:11.325Z,10.60
2023-04-23T06:31:47.650Z,10.70
2023-04-23T06:34:14.390Z,10.80
2023-04-23T06:36:41.218Z,10.90
2023-04-23T06:39:07.963Z,11.20
2023-04-23T06:41:34.623Z,11.40
2023-04-23T06:44:13.552Z,11.60
2023-04-23T06:46:47.840Z,11.90
2023-04-23T06:49:14.554Z,12.10
2023-04-23T06:51:41.429Z,12.50
2023-04-23T06:54:08.126Z,12.50
2023-04-23T06:56:34.957Z,12.60
2023-04-23T06:59:01.861Z,12.80
2023-04-23T07:01:29.489Z,12.90
2023-04-23T07:03:56.276Z,12.90
2023-04-23T07:06:22.966Z,12.80
2023-04-23T07:08:49.721Z,12.90
2023-04-23T07:11:16.558Z,13.20
2023-04-23T07:13:43.311Z,13.20
2023-04-23T07:16:10.030Z,13.10
2023-04-23T07:18:36.729Z,13.00
2023-04-23T07:21:03.424Z,13.00
2023-04-23T07:23:30.154Z,12.90
2023-04-23T07:25:56.902Z,12.70
2023-04-23T07:28:23.598Z,12.80
2023-04-23T07:30:50.393Z,12.90
2023-04-23T07:33:17.286Z,12.90
2023-04-23T07:35:44.066Z,12.90
2023-04-23T07:38:10.790Z,13.10
2023-04-23T07:40:38.019Z,13.10
2023-04-23T07:43:04.849Z,13.30
2023-04-23T07:45:31.604Z,13.40
2023-04-23T07:47:58.996Z,13.80
2023-04-23T07:50:25.731Z,14.40
2023-04-23T07:52:52.432Z,14.60
2023-04-23T07:55:20.322Z,14.90
2023-04-23T07:57:46.958Z,15.30
2023-04-23T08:00:14.331Z,15.40
2023-04-23T08:02:41.331Z,15.50
2023-04-23T08:05:08.702Z,15.70
2023-04-23T08:07:36.152Z,15.70
2023-04-23T08:10:05.898Z,15.80
2023-04-23T08:12:35.708Z,16.00
2023-04-23T08:15:03.080Z,16.30
2023-04-23T08:17:36.388Z,16.30
2023-04-23T08:20:06.607Z,16.30
2023-04-23T08:22:33.234Z,16.50
2023-04-23T08:24:59.925Z,16.90
2023-04-23T08:27:26.783Z,17.20
2023-04-23T08:29:53.459Z,17.10
2023-04-23T08:32:20.462Z,17.30
2023-04-23T08:34:47.202Z,17.30
2023-04-23T08:37:23.205Z,17.40
2023-04-23T08:39:54.167Z,17.30
2023-04-23T08:42:37.568Z,17.10
2023-04-23T08:45:05.191Z,17.00
2023-04-23T08:47:33.288Z,16.60
2023-04-23T08:50:00.349Z,16.30
2023-04-23T08:52:32.822Z,16.30
2023-04-23T08:55:01.365Z,16.80
2023-04-23T08:57:28.324Z,17.00
2023-04-23T08:59:56.984Z,17.50
2023-04-23T09:02:24.382Z,17.70
2023-04-23T09:04:56.057Z,17.60
2023-04-23T09:07:23.452Z,17.30
2023-04-23T09:09:50.164Z,17.00
2023-04-23T09:12:16.942Z,16.80
2023-04-23T09:14:44.244Z,16.70
2023-04-23T09:17:11.422Z,16.60
2023-04-23T09:19:39.917Z,16.70
2023-04-23T09:22:07.722Z,16.70
2023-04-23T09:24:34.778Z,16.70
2023-04-23T09:27:02.665Z,16.30
2023-04-23T09:29:30.933Z,16.10
2023-04-23T09:32:08.665Z,16.10
2023-04-23T09:34:37.489Z,16.30
2023-04-23T09:37:06.078Z,16.70
2023-04-23T09:39:34.504Z,16.80
2023-04-23T09:42:05.745Z,16.50
2023-04-23T09:44:33.840Z,16.30
2023-04-23T09:47:09.735Z,16.10
2023-04-23T09:49:49.549Z,16.20
2023-04-23T09:52:17.123Z,16.60
2023-04-23T09:54:46.324Z,16.70
2023-04-23T09:57:13.694Z,16.90
2023-04-23T10:02:12.922Z,17.10
2023-04-23T10:04:40.459Z,17.20
2023-04-23T10:09:43.625Z,16.80
2023-04-23T10:12:24.229Z,16.50
2023-04-23T10:14:59.544Z,16.40
2023-04-23T10:17:26.422Z,16.40
2023-04-23T10:19:55.510Z,16.90
2023-04-23T10:22:22.892Z,17.40
2023-04-23T10:24:56.073Z,17.70
2023-04-23T10:27:40.208Z,17.80
2023-04-23T10:30:15.044Z,18.00
2023-04-23T10:32:42.203Z,17.80
2023-04-23T10:35:09.979Z,18.00
2023-04-23T10:37:37.975Z,18.40
2023-04-23T10:40:11.393Z,18.40
2023-04-23T10:42:40.113Z,18.30
2023-04-23T10:45:24.679Z,18.00
2023-04-23T10:47:53.409Z,18.00
2023-04-23T10:50:26.865Z,17.80
2023-04-23T10:52:54.928Z,17.50
2023-04-23T10:55:24.221Z,17.50
2023-04-23T10:58:00.616Z,17.40
2023-04-23T11:00:29.527Z,17.20
2023-04-23T11:02:56.508Z,17.10
2023-04-23T11:05:25.431Z,17.30
2023-04-23T11:08:18.920Z,17.50
2023-04-23T11:11:00.694Z,17.50
2023-04-23T11:13:29.116Z,17.40
2023-04-23T11:16:15.663Z,17.60
2023-04-23T11:19:08.629Z,17.70
2023-04-23T11:21:58.812Z,17.80
2023-04-23T11:24:29.604Z,18.00
2023-04-23T11:26:56.835Z,18.00
2023-04-23T11:29:24.889Z,17.90
2023-04-23T11:34:23.713Z,18.00
2023-04-23T11:36:53.685Z,17.80
2023-04-23T11:39:26.854Z,17.50
2023-04-23T11:41:54.138Z,17.30
2023-04-23T11:44:21.988Z,16.60
2023-04-23T11:46:49.703Z,16.00
2023-04-23T11:49:18.489Z,15.60
2023-04-23T11:51:46.679Z,15.40
2023-04-23T11:54:14.496Z,15.20
2023-04-23T11:56:41.677Z,15.20
2023-04-23T11:59:09.442Z,15.50
2023-04-23T12:01:46.711Z,15.70
2023-04-23T12:04:21.406Z,15.90
2023-04-23T12:06:50.389Z,15.90
2023-04-23T12:09:19.583Z,15.80
2023-04-23T12:11:46.777Z,16.00
2023-04-23T12:14:15.167Z,16.20
2023-04-23T12:16:43.637Z,16.50
2023-04-23T12:19:17.296Z,16.70
2023-04-23T12:21:56.700Z,16.80
2023-04-23T12:24:26.068Z,16.70
2023-04-23T12:27:00.313Z,16.90
2023-04-23T12:29:29.814Z,16.80
2023-04-23T12:31:59.371Z,16.70
2023-04-23T12:34:26.086Z,16.40
2023-04-23T12:36:56.053Z,15.90
2023-04-23T12:39:36.365Z,15.50
2023-04-23T12:42:10.176Z,15.20
2023-04-23T12:44:38.805Z,14.80
2023-04-23T12:47:07.567Z,14.60
2023-04-23T12:49:36.090Z,14.60
2023-04-23T12:52:04.743Z,14.70
2023-04-23T12:54:39.385Z,15.10
2023-04-23T12:57:07.735Z,15.30
2023-04-23T12:59:34.828Z,15.60
2023-04-23T13:02:02.483Z,15.70
2023-04-23T13:04:31.464Z,16.10
2023-04-23T13:06:58.144Z,16.30
2023-04-23T13:09:27.000Z,16.30
2023-04-23T13:11:54.389Z,16.20
2023-04-23T13:14:21.551Z,16.00
2023-04-23T13:16:48.873Z,15.90
2023-04-23T13:19:17.030Z,15.90
2023-04-23T13:21:44.698Z,15.90
2023-04-23T13:24:11.947Z,16.00
2023-04-23T13:26:38.846Z,16.00
2023-04-23T13:29:06.050Z,16.00
2023-04-23T13:31:33.018Z,16.10
2023-04-23T13:34:01.340Z,16.00
2023-04-23T13:36:27.999Z,16.10
2023-04-23T13:38:54.783Z,16.10
2023-04-23T13:41:21.626Z,16.20
2023-04-23T13:43:48.285Z,16.30
2023-04-23T13:46:15.317Z,16.30
2023-04-23T13:48:41.971Z,16.50
2023-04-23T13:51:20.795Z,16.60
2023-04-23T13:53:53.840Z,16.80
2023-04-23T13:56:20.537Z,16.90
2023-04-23T13:58:48.776Z,16.90
2023-04-23T14:01:15.675Z,17.00
2023-04-23T14:03:42.466Z,17.30
2023-04-23T14:06:09.211Z,17.50
2023-04-23T14:08:36.738Z,17.70
2023-04-23T14:11:04.188Z,17.70
2023-04-23T14:13:31.950Z,17.60
2023-04-23T14:16:00.650Z,17.40
2023-04-23T14:18:28.824Z,17.30
2023-04-23T14:20:55.504Z,17.10
2023-04-23T14:23:27.811Z,17.00
2023-04-23T14:26:05.288Z,17.10
2023-04-23T14:28:40.757Z,17.40
2023-04-23T14:31:07.494Z,17.80
2023-04-23T14:33:34.192Z,18.00
2023-04-23T14:36:00.996Z,18.00
2023-04-23T14:38:27.986Z,18.10
2023-04-23T14:40:55.677Z,17.70
2023-04-23T14:43:22.374Z,17.30
2023-04-23T14:45:50.908Z,16.20
2023-04-23T14:48:17.634Z,15.60
2023-04-23T14:50:44.305Z,15.10
2023-04-23T14:53:11.146Z,15.00
2023-04-23T14:55:39.777Z,15.10
2023-04-23T14:58:06.620Z,15.00
2023-04-23T15:00:33.923Z,14.90
2023-04-23T15:03:02.569Z,14.60
2023-04-23T15:05:29.716Z,14.40
2023-04-23T15:07:56.451Z,14.30
2023-04-23T15:10:23.435Z,14.30
2023-04-23T15:13:03.641Z,14.40
2023-04-23T15:15:48.480Z,14.40
2023-04-23T15:18:15.591Z,14.60
2023-04-23T15:20:43.375Z,14.70
2023-04-23T15:23:10.552Z,14.90
2023-04-23T15:25:37.670Z,15.10
2023-04-23T15:28:05.557Z,15.30
2023-04-23T15:30:32.349Z,15.60
2023-04-23T15:32:59.157Z,15.70
2023-04-23T15:35:27.428Z,15.80
2023-04-23T15:37:54.808Z,16.00
2023-04-23T15:40:21.747Z,16.20
2023-04-23T15:42:49.845Z,16.20
2023-04-23T15:45:16.908Z,16.20
2023-04-23T15:47:43.651Z,16.00
2023-04-23T15:50:12.037Z,15.80
2023-04-23T15:52:39.489Z,15.70
2023-04-23T15:55:07.167Z,15.70
2023-04-23T15:57:33.817Z,15.70
2023-04-23T16:00:01.264Z,15.80
2023-04-23T16:02:28.973Z,15.80
2023-04-23T16:04:56.182Z,15.80
2023-04-23T16:07:23.112Z,15.70
2023-04-23T16:09:49.750Z,15.70
2023-04-23T16:12:16.703Z,15.60
2023-04-23T16:14:43.430Z,15.60
2023-04-23T16:17:10.565Z,15.60
2023-04-23T16:19:37.521Z,15.60
2023-04-23T16:22:04.178Z,15.70
2023-04-23T16:24:31.121Z,15.60
2023-04-23T16:26:57.944Z,15.60
2023-04-23T16:29:24.804Z,15.50
2023-04-23T16:31:51.455Z,15.60
2023-04-23T16:34:18.146Z,15.50
2023-04-23T16:36:44.871Z,15.50
2023-04-23T16:39:11.671Z,15.50
2023-04-23T16:41:38.480Z,15.60
2023-04-23T16:44:05.270Z,15.60
2023-04-23T16:46:32.445Z,15.50
2023-04-23T16:48:59.499Z,15.60
2023-04-23T16:51:26.817Z,15.60
2023-04-23T16:53:53.806Z,15.50
2023-04-23T16:56:21.205Z,15.60
2023-04-23T16:58:48.192Z,15.60
2023-04-23T17:01:16.458Z,15.60
2023-04-23T17:03:44.180Z,15.50
2023-04-23T17:06:12.751Z,15.50
2023-04-23T17:08:39.954Z,15.40
2023-04-23T17:11:09.302Z,15.30
2023-04-23T17:13:35.997Z,15.20
2023-04-23T17:16:03.008Z,15.20
2023-04-23T17:18:29.788Z,15.20
2023-04-23T17:20:56.593Z,15.10
2023-04-23T17:23:23.269Z,15.10
2023-04-23T17:25:50.202Z,15.10
2023-04-23T17:28:18.443Z,15.10
2023-04-23T17:30:47.324Z,15.20
2023-04-23T17:33:14.007Z,15.10
2023-04-23T17:35:40.625Z,15.00
2023-04-23T17:38:07.211Z,15.00
2023-04-23T17:40:33.926Z,14.90
2023-04-23T17:43:00.932Z,14.90
2023-04-23T17:45:27.656Z,14.80
2023-04-23T17:47:54.374Z,14.80
2023-04-23T17:50:21.900Z,14.70
2023-04-23T17:52:48.592Z,14.70
2023-04-23T17:55:15.225Z,14.70
2023-04-23T17:57:41.848Z,14.70
2023-04-23T18:00:12.108Z,14.70
2023-04-23T18:02:42.433Z,14.60
2023-04-23T18:05:11.039Z,14.50
2023-04-23T18:07:39.361Z,14.40
2023-04-23T18:10:07.667Z,14.40
2023-04-23T18:12:34.750Z,14.30
2023-04-23T18:15:01.467Z,14.30
2023-04-23T18:17:28.338Z,14.30
2023-04-23T18:19:55.257Z,14.30
2023-04-23T18:22:22.033Z,14.10
2023-04-23T18:24:50.281Z,14.10
2023-04-23T18:27:17.441Z,14.20
2023-04-23T18:29:44.742Z,14.20
2023-04-23T18:32:18.170Z,14.20
2023-04-23T18:34:51.267Z,14.00
2023-04-23T18:37:38.147Z,13.90
2023-04-23T18:40:05.980Z,13.90
2023-04-23T18:42:33.092Z,13.90
2023-04-23T18:44:59.812Z,13.80
2023-04-23T18:47:32.256Z,13.80
2023-04-23T18:50:08.068Z,13.80
2023-04-23T18:52:34.722Z,13.80
2023-04-23T18:55:01.409Z,13.80
2023-04-23T18:57:28.581Z,13.70
2023-04-23T18:59:55.354Z,13.80
2023-04-23T19:02:34.428Z,13.80
2023-04-23T19:05:02.505Z,13.80
2023-04-23T19:07:29.192Z,13.80
2023-04-23T19:09:56.088Z,13.70
2023-04-23T19:12:22.688Z,13.60
2023-04-23T19:14:49.282Z,13.50
2023-04-23T19:17:18.542Z,13.40
2023-04-23T19:19:45.964Z,13.50
2023-04-23T19:22:12.669Z,13.80
2023-04-23T19:24:39.336Z,13.90
2023-04-23T19:27:07.048Z,13.90
2023-04-23T19:29:33.716Z,13.60
2023-04-23T19:32:00.735Z,13.40
2023-04-23T19:34:27.393Z,13.10
2023-04-23T19:36:54.013Z,13.00
2023-04-23T19:39:23.109Z,12.70
2023-04-23T19:41:49.869Z,12.50
2023-04-23T19:44:16.490Z,12.30
2023-04-23T19:46:43.160Z,12.20
2023-04-23T19:49:09.956Z,12.10
2023-04-23T19:51:37.896Z,12.00
2023-04-23T19:54:04.906Z,11.80
2023-04-23T19:56:31.523Z,11.80
2023-04-23T19:58:58.655Z,11.80
2023-04-23T20:01:27.890Z,11.70
2023-04-23T20:03:55.096Z,11.70
2023-04-23T20:06:21.743Z,11.70
2023-04-23T20:09:06.726Z,11.70
2023-04-23T20:11:35.038Z,11.70
2023-04-23T20:14:03.470Z,11.60
2023-04-23T20:16:30.473Z,11.60
2023-04-23T20:18:57.542Z,11.60
2023-04-23T20:21:24.745Z,11.50
2023-04-23T20:23:51.488Z,11.50
2023-04-23T20:26:18.998Z,11.50
2023-04-23T20:28:47.282Z,11.40
2023-04-23T20:31:14.529Z,11.40
2023-04-23T20:33:41.225Z,11.40
2023-04-23T20:36:10.817Z,11.40
2023-04-23T20:38:38.904Z,11.30
2023-04-23T20:41:05.989Z,11.40
2023-04-23T20:43:35.502Z,11.30
2023-04-23T20:46:02.859Z,11.30
2023-04-23T20:48:30.353Z,11.20
2023-04-23T20:50:57.845Z,11.20
2023-04-23T20:53:25.501Z,11.20
2023-04-23T20:55:52.228Z,11.20
2023-04-23T20:58:18.884Z,11.20
2023-04-23T21:00:45.805Z,11.20
2023-04-23T21:03:12.641Z,11.20
2023-04-23T21:05:44.068Z,11.10
2023-04-23T21:08:11.465Z,11.10
2023-04-23T21:10:38.822Z,11.00
2023-04-23T21:13:07.860Z,11.00
2023-04-23T21:15:35.434Z,11.00
2023-04-23T21:18:02.734Z,10.90
2023-04-23T21:20:29.843Z,10.80
2023-04-23T21:22:56.695Z,10.80
2023-04-23T21:25:23.815Z,10.80
2023-04-23T21:27:50.535Z,10.70
2023-04-23T21:30:48.921Z,10.70
2023-04-23T21:33:16.586Z,10.70
2023-04-23T21:35:44.319Z,10.70
2023-04-23T21:38:11.305Z,10.70
2023-04-23T21:40:38.980Z,10.70
2023-04-23T21:43:06.825Z,10.70
2023-04-23T21:45:34.040Z,10.60
2023-04-23T21:48:01.629Z,10.60
2023-04-23T21:50:30.813Z,10.60
2023-04-23T21:52:58.424Z,10.60
2023-04-23T21:55:30.816Z,10.60
2023-04-23T21:58:09.898Z,10.60
2023-04-23T22:00:44.333Z,10.70
2023-04-23T22:03:11.746Z,10.70
2023-04-23T22:05:39.295Z,10.70
2023-04-23T22:08:07.361Z,10.70
2023-04-23T22:10:34.198Z,10.70
2023-04-23T22:13:01.101Z,10.60
2023-04-23T22:15:29.088Z,10.60
2023-04-23T22:17:58.944Z,10.60
2023-04-23T22:20:25.688Z,10.60
2023-04-23T22:22:52.335Z,10.60
2023-04-23T22:25:19.375Z,10.60
2023-04-23T22:27:46.094Z,10.60
2023-04-23T22:30:13.207Z,10.60
2023-04-23T22:32:40.675Z,10.60
2023-04-23T22:35:08.035Z,10.60
2023-04-23T22:37:35.167Z,10.60
2023-04-23T22:40:02.421Z,10.60
2023-04-23T22:42:29.003Z,10.50
2023-04-23T22:44:55.771Z,10.50
2023-04-23T22:47:22.828Z,10.50
2023-04-23T22:49:49.903Z,10.40
2023-04-23T22:52:16.566Z,10.40
2023-04-23T22:54:44.020Z,10.40
2023-04-23T22:57:11.780Z,10.40
2023-04-23T22:59:41.835Z,10.40
2023-04-23T23:02:08.914Z,10.40
2023-04-23T23:04:38.416Z,10.40
2023-04-23T23:07:05.875Z,10.40
2023-04-23T23:09:32.612Z,10.40
2023-04-23T23:12:02.232Z,10.40
2023-04-23T23:14:29.772Z,10.40
2023-04-23T23:16:57.285Z,10.40
2023-04-23T23:19:26.308Z,10.40
2023-04-23T23:21:53.142Z,10.40
2023-04-23T23:24:19.840Z,10.50
2023-04-23T23:26:46.628Z,10.50
2023-04-23T23:29:13.397Z,10.50
2023-04-23T23:31:40.217Z,10.50
2023-04-23T23:34:07.042Z,10.50
2023-04-23T23:36:33.947Z,10.60
2023-04-23T23:39:01.240Z,10.70
2023-04-23T23:41:27.912Z,10.80
2023-04-23T23:43:54.668Z,10.90
2023-04-23T23:46:21.547Z,11.00
2023-04-23T23:48:48.371Z,11.00
2023-04-23T23:51:15.891Z,10.90
2023-04-23T23:53:42.543Z,10.90
2023-04-23T23:56:09.158Z,10.80
2023-04-23T23:58:35.773Z,10.70
